sensor_id;sensor_type;location;lat;lon;timestamp;temperature;humidity
44229;DHT22;29904;51.058;5.378;2023-12-07T00:01:04;2.30;99.90
44229;DHT22;29904;51.058;5.378;2023-12-07T00:03:30;2.30;99.90
44229;DHT22;29904;51.058;5.378;2023-12-07T00:05:56;2.20;99.90
44229;DHT22;29904;51.058;5.378;2023-12-07T00:08:22;2.20;99.90
44229;DHT22;29904;51.058;5.378;2023-12-07T00:10:49;2.30;99.90
44229;DHT22;29904;51.058;5.378;2023-12-07T00:13:15;2.30;99.90
44229;DHT22;29904;51.058;5.378;2023-12-07T00:15:41;2.30;99.90
44229;DHT22;29904;51.058;5.378;2023-12-07T00:18:06;2.20;99.90
44229;DHT22;29904;51.058;5.378;2023-12-07T00:20:32;2.20;99.90
44229;DHT22;29904;51.058;5.378;2023-12-07T00:22:58;2.20;99.90
44229;DHT22;29904;51.058;5.378;2023-12-07T00:25:23;2.20;99.90
44229;DHT22;29904;51.058;5.378;2023-12-07T00:27:49;2.10;99.90
44229;DHT22;29904;51.058;5.378;2023-12-07T00:30:15;2.10;99.90
44229;DHT22;29904;51.058;5.378;2023-12-07T00:32:41;2.10;99.90
44229;DHT22;29904;51.058;5.378;2023-12-07T00:35:10;2.10;99.90
44229;DHT22;29904;51.058;5.378;2023-12-07T00:37:36;2.00;99.90
44229;DHT22;29904;51.058;5.378;2023-12-07T00:40:02;2.10;99.90
44229;DHT22;29904;51.058;5.378;2023-12-07T00:42:28;2.10;99.90
44229;DHT22;29904;51.058;5.378;2023-12-07T00:44:54;2.00;99.90
44229;DHT22;29904;51.058;5.378;2023-12-07T00:47:20;2.10;99.90
44229;DHT22;29904;51.058;5.378;2023-12-07T00:49:46;2.00;99.90
44229;DHT22;29904;51.058;5.378;2023-12-07T00:52:12;1.90;99.90
44229;DHT22;29904;51.058;5.378;2023-12-07T00:54:38;1.90;99.90
44229;DHT22;29904;51.058;5.378;2023-12-07T00:57:05;1.90;99.90
44229;DHT22;29904;51.058;5.378;2023-12-07T00:59:31;1.90;99.90
44229;DHT22;29904;51.058;5.378;2023-12-07T01:02:02;1.90;99.90
44229;DHT22;29904;51.058;5.378;2023-12-07T01:04:29;1.90;99.90
44229;DHT22;29904;51.058;5.378;2023-12-07T01:06:55;1.90;99.90
44229;DHT22;29904;51.058;5.378;2023-12-07T01:09:21;2.00;99.90
44229;DHT22;29904;51.058;5.378;2023-12-07T01:11:47;2.00;99.90
44229;DHT22;29904;51.058;5.378;2023-12-07T01:14:13;2.00;99.90
44229;DHT22;29904;51.058;5.378;2023-12-07T01:16:38;2.00;99.90
44229;DHT22;29904;51.058;5.378;2023-12-07T01:19:04;2.10;99.90
44229;DHT22;29904;51.058;5.378;2023-12-07T01:21:30;2.00;99.90
44229;DHT22;29904;51.058;5.378;2023-12-07T01:23:56;2.00;99.90
44229;DHT22;29904;51.058;5.378;2023-12-07T01:26:23;2.00;99.90
44229;DHT22;29904;51.058;5.378;2023-12-07T01:28:49;2.00;99.90
44229;DHT22;29904;51.058;5.378;2023-12-07T01:31:15;2.00;99.90
44229;DHT22;29904;51.058;5.378;2023-12-07T01:33:40;2.00;99.90
44229;DHT22;29904;51.058;5.378;2023-12-07T01:36:06;2.00;99.90
44229;DHT22;29904;51.058;5.378;2023-12-07T01:38:32;2.00;99.90
44229;DHT22;29904;51.058;5.378;2023-12-07T01:40:58;2.10;99.90
44229;DHT22;29904;51.058;5.378;2023-12-07T01:43:23;2.20;99.90
44229;DHT22;29904;51.058;5.378;2023-12-07T01:45:51;2.20;99.90
44229;DHT22;29904;51.058;5.378;2023-12-07T01:48:20;2.10;99.90
44229;DHT22;29904;51.058;5.378;2023-12-07T01:50:46;2.10;99.90
44229;DHT22;29904;51.058;5.378;2023-12-07T01:53:13;2.10;99.90
44229;DHT22;29904;51.058;5.378;2023-12-07T01:55:39;2.10;99.90
44229;DHT22;29904;51.058;5.378;2023-12-07T01:58:06;2.10;99.90
44229;DHT22;29904;51.058;5.378;2023-12-07T02:00:33;2.10;99.90
44229;DHT22;29904;51.058;5.378;2023-12-07T02:03:01;2.20;99.90
44229;DHT22;29904;51.058;5.378;2023-12-07T02:05:29;2.20;99.90
44229;DHT22;29904;51.058;5.378;2023-12-07T02:07:54;2.30;99.90
44229;DHT22;29904;51.058;5.378;2023-12-07T02:10:20;2.30;99.90
44229;DHT22;29904;51.058;5.378;2023-12-07T02:12:47;2.30;99.90
44229;DHT22;29904;51.058;5.378;2023-12-07T02:15:14;2.40;99.90
44229;DHT22;29904;51.058;5.378;2023-12-07T02:17:55;2.40;99.90
44229;DHT22;29904;51.058;5.378;2023-12-07T02:20:43;2.40;99.90
44229;DHT22;29904;51.058;5.378;2023-12-07T02:23:11;2.40;99.90
44229;DHT22;29904;51.058;5.378;2023-12-07T02:28:04;2.50;99.90
44229;DHT22;29904;51.058;5.378;2023-12-07T02:30:29;2.50;99.90
44229;DHT22;29904;51.058;5.378;2023-12-07T02:32:55;2.60;99.90
44229;DHT22;29904;51.058;5.378;2023-12-07T02:35:21;2.60;99.90
44229;DHT22;29904;51.058;5.378;2023-12-07T02:37:51;2.60;99.90
44229;DHT22;29904;51.058;5.378;2023-12-07T02:40:22;2.60;99.90
44229;DHT22;29904;51.058;5.378;2023-12-07T02:42:49;2.60;99.90
44229;DHT22;29904;51.058;5.378;2023-12-07T02:45:16;2.60;99.90
44229;DHT22;29904;51.058;5.378;2023-12-07T02:47:42;2.70;99.90
44229;DHT22;29904;51.058;5.378;2023-12-07T02:50:11;2.70;99.90
44229;DHT22;29904;51.058;5.378;2023-12-07T02:52:37;2.60;99.90
44229;DHT22;29904;51.058;5.378;2023-12-07T02:55:04;2.60;99.90
44229;DHT22;29904;51.058;5.378;2023-12-07T02:57:30;2.60;99.90
44229;DHT22;29904;51.058;5.378;2023-12-07T02:59:56;2.60;99.90
44229;DHT22;29904;51.058;5.378;2023-12-07T03:02:22;2.70;99.90
44229;DHT22;29904;51.058;5.378;2023-12-07T03:04:47;2.70;99.90
44229;DHT22;29904;51.058;5.378;2023-12-07T03:07:13;2.70;99.90
44229;DHT22;29904;51.058;5.378;2023-12-07T03:09:39;2.70;99.90
44229;DHT22;29904;51.058;5.378;2023-12-07T03:12:06;2.70;99.90
44229;DHT22;29904;51.058;5.378;2023-12-07T03:14:32;2.70;99.90
44229;DHT22;29904;51.058;5.378;2023-12-07T03:16:58;2.70;99.90
44229;DHT22;29904;51.058;5.378;2023-12-07T03:19:24;2.70;99.90
44229;DHT22;29904;51.058;5.378;2023-12-07T03:21:50;2.70;99.90
44229;DHT22;29904;51.058;5.378;2023-12-07T03:24:15;2.70;99.90
44229;DHT22;29904;51.058;5.378;2023-12-07T03:26:41;2.70;99.90
44229;DHT22;29904;51.058;5.378;2023-12-07T03:29:07;2.60;99.90
44229;DHT22;29904;51.058;5.378;2023-12-07T03:31:32;2.60;99.90
44229;DHT22;29904;51.058;5.378;2023-12-07T03:33:58;2.50;99.90
44229;DHT22;29904;51.058;5.378;2023-12-07T03:36:26;2.50;99.90
44229;DHT22;29904;51.058;5.378;2023-12-07T03:38:52;2.50;99.90
44229;DHT22;29904;51.058;5.378;2023-12-07T03:41:18;2.50;99.90
44229;DHT22;29904;51.058;5.378;2023-12-07T03:43:44;2.60;99.90
44229;DHT22;29904;51.058;5.378;2023-12-07T03:46:09;2.60;99.90
44229;DHT22;29904;51.058;5.378;2023-12-07T03:48:35;2.60;99.90
44229;DHT22;29904;51.058;5.378;2023-12-07T03:51:01;2.60;99.90
44229;DHT22;29904;51.058;5.378;2023-12-07T03:53:27;2.70;99.90
44229;DHT22;29904;51.058;5.378;2023-12-07T03:55:53;2.70;99.90
44229;DHT22;29904;51.058;5.378;2023-12-07T03:58:19;2.70;99.90
44229;DHT22;29904;51.058;5.378;2023-12-07T04:00:45;2.70;99.90
44229;DHT22;29904;51.058;5.378;2023-12-07T04:03:11;2.80;99.90
44229;DHT22;29904;51.058;5.378;2023-12-07T04:05:38;2.80;99.90
44229;DHT22;29904;51.058;5.378;2023-12-07T04:08:04;2.80;99.90
44229;DHT22;29904;51.058;5.378;2023-12-07T04:10:32;2.80;99.90
44229;DHT22;29904;51.058;5.378;2023-12-07T04:12:58;2.80;99.90
44229;DHT22;29904;51.058;5.378;2023-12-07T04:15:23;2.90;99.90
44229;DHT22;29904;51.058;5.378;2023-12-07T04:17:50;2.90;99.90
44229;DHT22;29904;51.058;5.378;2023-12-07T04:20:16;2.90;99.90
44229;DHT22;29904;51.058;5.378;2023-12-07T04:22:43;3.00;99.90
44229;DHT22;29904;51.058;5.378;2023-12-07T04:25:09;3.00;99.90
44229;DHT22;29904;51.058;5.378;2023-12-07T04:27:35;3.00;99.90
44229;DHT22;29904;51.058;5.378;2023-12-07T04:30:01;3.00;99.90
44229;DHT22;29904;51.058;5.378;2023-12-07T04:32:27;3.00;99.90
44229;DHT22;29904;51.058;5.378;2023-12-07T04:34:52;2.90;99.90
44229;DHT22;29904;51.058;5.378;2023-12-07T04:37:19;3.00;99.90
44229;DHT22;29904;51.058;5.378;2023-12-07T04:39:44;2.90;99.90
44229;DHT22;29904;51.058;5.378;2023-12-07T04:42:10;2.90;99.90
44229;DHT22;29904;51.058;5.378;2023-12-07T04:44:36;2.90;99.90
44229;DHT22;29904;51.058;5.378;2023-12-07T04:47:02;2.90;99.90
44229;DHT22;29904;51.058;5.378;2023-12-07T04:49:27;2.80;99.90
44229;DHT22;29904;51.058;5.378;2023-12-07T04:51:53;2.80;99.90
44229;DHT22;29904;51.058;5.378;2023-12-07T04:54:18;2.90;99.90
44229;DHT22;29904;51.058;5.378;2023-12-07T04:56:45;2.90;99.90
44229;DHT22;29904;51.058;5.378;2023-12-07T04:59:11;2.80;99.90
44229;DHT22;29904;51.058;5.378;2023-12-07T05:01:37;2.80;99.90
44229;DHT22;29904;51.058;5.378;2023-12-07T05:04:05;2.80;99.90
44229;DHT22;29904;51.058;5.378;2023-12-07T05:06:31;2.80;99.90
44229;DHT22;29904;51.058;5.378;2023-12-07T05:08:57;2.80;99.90
44229;DHT22;29904;51.058;5.378;2023-12-07T05:11:23;2.80;99.90
44229;DHT22;29904;51.058;5.378;2023-12-07T05:13:49;2.80;99.90
44229;DHT22;29904;51.058;5.378;2023-12-07T05:16:15;2.90;99.90
44229;DHT22;29904;51.058;5.378;2023-12-07T05:18:41;2.90;99.90
44229;DHT22;29904;51.058;5.378;2023-12-07T05:21:07;2.90;99.90
44229;DHT22;29904;51.058;5.378;2023-12-07T05:23:33;2.90;99.90
44229;DHT22;29904;51.058;5.378;2023-12-07T05:25:59;2.90;99.90
44229;DHT22;29904;51.058;5.378;2023-12-07T05:28:26;2.90;99.90
44229;DHT22;29904;51.058;5.378;2023-12-07T05:30:52;2.90;99.90
44229;DHT22;29904;51.058;5.378;2023-12-07T05:33:18;2.90;99.90
44229;DHT22;29904;51.058;5.378;2023-12-07T05:35:45;2.90;99.90
44229;DHT22;29904;51.058;5.378;2023-12-07T05:38:11;2.90;99.90
44229;DHT22;29904;51.058;5.378;2023-12-07T05:40:37;2.90;99.90
44229;DHT22;29904;51.058;5.378;2023-12-07T05:43:03;2.80;99.90
44229;DHT22;29904;51.058;5.378;2023-12-07T05:45:29;2.80;99.90
44229;DHT22;29904;51.058;5.378;2023-12-07T05:47:55;2.80;99.90
44229;DHT22;29904;51.058;5.378;2023-12-07T05:50:21;2.80;99.90
44229;DHT22;29904;51.058;5.378;2023-12-07T05:52:47;2.80;99.90
44229;DHT22;29904;51.058;5.378;2023-12-07T05:55:13;2.70;99.90
44229;DHT22;29904;51.058;5.378;2023-12-07T05:57:39;2.70;99.90
44229;DHT22;29904;51.058;5.378;2023-12-07T06:00:05;2.70;99.90
44229;DHT22;29904;51.058;5.378;2023-12-07T06:02:35;2.70;99.90
44229;DHT22;29904;51.058;5.378;2023-12-07T06:05:04;2.70;99.90
44229;DHT22;29904;51.058;5.378;2023-12-07T06:07:30;2.70;99.90
44229;DHT22;29904;51.058;5.378;2023-12-07T06:09:56;2.70;99.90
44229;DHT22;29904;51.058;5.378;2023-12-07T06:12:22;2.70;99.90
44229;DHT22;29904;51.058;5.378;2023-12-07T06:14:51;2.70;99.90
44229;DHT22;29904;51.058;5.378;2023-12-07T06:17:16;2.80;99.90
44229;DHT22;29904;51.058;5.378;2023-12-07T06:19:42;2.80;99.90
44229;DHT22;29904;51.058;5.378;2023-12-07T06:22:08;2.90;99.90
44229;DHT22;29904;51.058;5.378;2023-12-07T06:24:33;3.00;99.90
44229;DHT22;29904;51.058;5.378;2023-12-07T06:26:59;3.00;99.90
44229;DHT22;29904;51.058;5.378;2023-12-07T06:29:27;3.00;99.90
44229;DHT22;29904;51.058;5.378;2023-12-07T06:31:52;3.00;99.90
44229;DHT22;29904;51.058;5.378;2023-12-07T06:34:18;3.00;99.90
44229;DHT22;29904;51.058;5.378;2023-12-07T06:36:45;3.10;99.90
44229;DHT22;29904;51.058;5.378;2023-12-07T06:39:11;3.10;99.90
44229;DHT22;29904;51.058;5.378;2023-12-07T06:41:36;3.20;99.90
44229;DHT22;29904;51.058;5.378;2023-12-07T06:44:02;3.20;99.90
44229;DHT22;29904;51.058;5.378;2023-12-07T06:46:28;3.20;99.90
44229;DHT22;29904;51.058;5.378;2023-12-07T06:48:54;3.20;99.90
44229;DHT22;29904;51.058;5.378;2023-12-07T06:51:19;3.20;99.90
44229;DHT22;29904;51.058;5.378;2023-12-07T06:53:45;3.20;99.90
44229;DHT22;29904;51.058;5.378;2023-12-07T06:56:11;3.20;99.90
44229;DHT22;29904;51.058;5.378;2023-12-07T06:58:37;3.10;99.90
44229;DHT22;29904;51.058;5.378;2023-12-07T07:01:02;3.10;99.90
44229;DHT22;29904;51.058;5.378;2023-12-07T07:03:28;3.00;99.90
44229;DHT22;29904;51.058;5.378;2023-12-07T07:05:55;3.10;99.90
44229;DHT22;29904;51.058;5.378;2023-12-07T07:08:20;3.10;99.90
44229;DHT22;29904;51.058;5.378;2023-12-07T07:10:46;3.10;99.90
44229;DHT22;29904;51.058;5.378;2023-12-07T07:13:12;3.10;99.90
44229;DHT22;29904;51.058;5.378;2023-12-07T07:15:42;3.10;99.90
44229;DHT22;29904;51.058;5.378;2023-12-07T07:18:09;3.20;99.90
44229;DHT22;29904;51.058;5.378;2023-12-07T07:20:34;3.20;99.90
44229;DHT22;29904;51.058;5.378;2023-12-07T07:23:00;3.20;99.90
44229;DHT22;29904;51.058;5.378;2023-12-07T07:25:26;3.20;99.90
44229;DHT22;29904;51.058;5.378;2023-12-07T07:27:51;3.00;99.90
44229;DHT22;29904;51.058;5.378;2023-12-07T07:30:19;3.00;99.90
44229;DHT22;29904;51.058;5.378;2023-12-07T07:32:45;3.10;99.90
44229;DHT22;29904;51.058;5.378;2023-12-07T07:35:10;3.00;99.90
44229;DHT22;29904;51.058;5.378;2023-12-07T07:37:38;3.10;99.90
44229;DHT22;29904;51.058;5.378;2023-12-07T07:40:04;3.10;99.90
44229;DHT22;29904;51.058;5.378;2023-12-07T07:42:32;3.00;99.90
44229;DHT22;29904;51.058;5.378;2023-12-07T07:44:58;2.90;99.90
44229;DHT22;29904;51.058;5.378;2023-12-07T07:47:24;2.80;99.90
44229;DHT22;29904;51.058;5.378;2023-12-07T07:49:50;2.80;99.90
44229;DHT22;29904;51.058;5.378;2023-12-07T07:52:16;2.70;99.90
44229;DHT22;29904;51.058;5.378;2023-12-07T07:54:42;2.60;99.90
44229;DHT22;29904;51.058;5.378;2023-12-07T07:57:08;2.50;99.90
44229;DHT22;29904;51.058;5.378;2023-12-07T07:59:34;2.40;99.90
44229;DHT22;29904;51.058;5.378;2023-12-07T08:02:00;2.40;99.90
44229;DHT22;29904;51.058;5.378;2023-12-07T08:04:25;2.40;99.90
44229;DHT22;29904;51.058;5.378;2023-12-07T08:06:51;2.40;99.90
44229;DHT22;29904;51.058;5.378;2023-12-07T08:09:17;2.30;99.90
44229;DHT22;29904;51.058;5.378;2023-12-07T08:11:42;2.30;99.90
44229;DHT22;29904;51.058;5.378;2023-12-07T08:14:08;2.40;99.90
44229;DHT22;29904;51.058;5.378;2023-12-07T08:16:34;2.30;99.90
44229;DHT22;29904;51.058;5.378;2023-12-07T08:19:00;2.40;99.90
44229;DHT22;29904;51.058;5.378;2023-12-07T08:21:25;2.30;99.90
44229;DHT22;29904;51.058;5.378;2023-12-07T08:23:51;2.40;99.90
44229;DHT22;29904;51.058;5.378;2023-12-07T08:26:17;2.40;99.90
44229;DHT22;29904;51.058;5.378;2023-12-07T08:28:44;2.40;99.90
44229;DHT22;29904;51.058;5.378;2023-12-07T08:31:10;2.40;99.90
44229;DHT22;29904;51.058;5.378;2023-12-07T08:33:36;2.40;99.90
44229;DHT22;29904;51.058;5.378;2023-12-07T08:36:05;2.40;99.90
44229;DHT22;29904;51.058;5.378;2023-12-07T08:38:32;2.40;99.90
44229;DHT22;29904;51.058;5.378;2023-12-07T08:40:58;2.40;99.90
44229;DHT22;29904;51.058;5.378;2023-12-07T08:43:24;2.40;99.90
44229;DHT22;29904;51.058;5.378;2023-12-07T08:45:53;2.50;99.90
44229;DHT22;29904;51.058;5.378;2023-12-07T08:48:22;2.50;99.90
44229;DHT22;29904;51.058;5.378;2023-12-07T08:50:47;2.50;99.90
44229;DHT22;29904;51.058;5.378;2023-12-07T08:53:13;2.50;99.90
44229;DHT22;29904;51.058;5.378;2023-12-07T08:55:39;2.50;99.90
44229;DHT22;29904;51.058;5.378;2023-12-07T08:58:05;2.50;99.90
44229;DHT22;29904;51.058;5.378;2023-12-07T09:00:34;2.50;99.90
44229;DHT22;29904;51.058;5.378;2023-12-07T09:03:00;2.50;99.90
44229;DHT22;29904;51.058;5.378;2023-12-07T09:05:27;2.50;99.90
44229;DHT22;29904;51.058;5.378;2023-12-07T09:07:53;2.60;99.90
44229;DHT22;29904;51.058;5.378;2023-12-07T09:10:19;2.60;99.90
44229;DHT22;29904;51.058;5.378;2023-12-07T09:12:45;2.60;99.90
44229;DHT22;29904;51.058;5.378;2023-12-07T09:15:11;2.60;99.90
44229;DHT22;29904;51.058;5.378;2023-12-07T09:17:38;2.70;99.90
44229;DHT22;29904;51.058;5.378;2023-12-07T09:20:08;2.60;99.90
44229;DHT22;29904;51.058;5.378;2023-12-07T09:22:43;2.70;99.90
44229;DHT22;29904;51.058;5.378;2023-12-07T09:25:10;2.70;99.90
44229;DHT22;29904;51.058;5.378;2023-12-07T09:27:36;2.70;99.90
44229;DHT22;29904;51.058;5.378;2023-12-07T09:30:12;2.70;99.90
44229;DHT22;29904;51.058;5.378;2023-12-07T09:32:38;2.70;99.90
44229;DHT22;29904;51.058;5.378;2023-12-07T09:35:05;2.80;99.90
44229;DHT22;29904;51.058;5.378;2023-12-07T09:37:33;2.90;99.90
44229;DHT22;29904;51.058;5.378;2023-12-07T09:39:58;2.90;99.90
44229;DHT22;29904;51.058;5.378;2023-12-07T09:45:33;3.00;99.90
44229;DHT22;29904;51.058;5.378;2023-12-07T09:47:59;3.00;99.90
44229;DHT22;29904;51.058;5.378;2023-12-07T09:50:27;3.10;99.90
44229;DHT22;29904;51.058;5.378;2023-12-07T09:52:57;3.10;99.90
44229;DHT22;29904;51.058;5.378;2023-12-07T09:55:23;3.20;99.90
44229;DHT22;29904;51.058;5.378;2023-12-07T09:57:50;3.30;99.90
44229;DHT22;29904;51.058;5.378;2023-12-07T10:00:17;3.20;99.90
44229;DHT22;29904;51.058;5.378;2023-12-07T10:02:45;3.30;99.90
44229;DHT22;29904;51.058;5.378;2023-12-07T10:05:12;3.30;99.90
44229;DHT22;29904;51.058;5.378;2023-12-07T10:07:46;3.30;99.90
44229;DHT22;29904;51.058;5.378;2023-12-07T10:10:14;3.40;99.90
44229;DHT22;29904;51.058;5.378;2023-12-07T10:12:48;3.40;99.90
44229;DHT22;29904;51.058;5.378;2023-12-07T10:15:17;3.40;99.90
44229;DHT22;29904;51.058;5.378;2023-12-07T10:17:56;3.60;99.90
44229;DHT22;29904;51.058;5.378;2023-12-07T10:20:29;3.50;99.90
44229;DHT22;29904;51.058;5.378;2023-12-07T10:23:08;3.60;99.90
44229;DHT22;29904;51.058;5.378;2023-12-07T10:25:39;3.70;99.90
44229;DHT22;29904;51.058;5.378;2023-12-07T10:28:07;3.70;99.90
44229;DHT22;29904;51.058;5.378;2023-12-07T10:30:34;3.80;99.90
44229;DHT22;29904;51.058;5.378;2023-12-07T10:33:06;3.90;99.90
44229;DHT22;29904;51.058;5.378;2023-12-07T10:35:33;3.90;99.90
44229;DHT22;29904;51.058;5.378;2023-12-07T10:37:59;4.00;99.90
44229;DHT22;29904;51.058;5.378;2023-12-07T10:40:25;4.00;99.90
44229;DHT22;29904;51.058;5.378;2023-12-07T10:42:56;4.00;99.90
44229;DHT22;29904;51.058;5.378;2023-12-07T10:45:25;4.10;99.90
44229;DHT22;29904;51.058;5.378;2023-12-07T10:47:51;4.10;99.90
44229;DHT22;29904;51.058;5.378;2023-12-07T10:50:22;4.20;99.90
44229;DHT22;29904;51.058;5.378;2023-12-07T10:52:52;4.20;99.90
44229;DHT22;29904;51.058;5.378;2023-12-07T10:55:22;4.20;99.90
44229;DHT22;29904;51.058;5.378;2023-12-07T10:57:55;4.20;99.90
44229;DHT22;29904;51.058;5.378;2023-12-07T11:00:22;4.10;99.90
44229;DHT22;29904;51.058;5.378;2023-12-07T11:02:53;4.10;99.90
44229;DHT22;29904;51.058;5.378;2023-12-07T11:05:19;4.10;99.90
44229;DHT22;29904;51.058;5.378;2023-12-07T11:10:36;4.10;99.90
44229;DHT22;29904;51.058;5.378;2023-12-07T11:13:11;4.10;99.90
44229;DHT22;29904;51.058;5.378;2023-12-07T11:15:40;4.20;99.90
44229;DHT22;29904;51.058;5.378;2023-12-07T11:18:06;4.20;99.90
44229;DHT22;29904;51.058;5.378;2023-12-07T11:20:40;4.20;99.90
44229;DHT22;29904;51.058;5.378;2023-12-07T11:23:12;4.30;99.90
44229;DHT22;29904;51.058;5.378;2023-12-07T11:25:43;4.40;99.90
44229;DHT22;29904;51.058;5.378;2023-12-07T11:28:11;4.50;99.90
44229;DHT22;29904;51.058;5.378;2023-12-07T11:30:38;4.70;99.90
44229;DHT22;29904;51.058;5.378;2023-12-07T11:33:07;4.70;99.90
44229;DHT22;29904;51.058;5.378;2023-12-07T11:35:33;4.80;99.90
44229;DHT22;29904;51.058;5.378;2023-12-07T11:38:09;4.90;99.90
44229;DHT22;29904;51.058;5.378;2023-12-07T11:40:45;5.10;99.90
44229;DHT22;29904;51.058;5.378;2023-12-07T11:43:41;5.20;99.90
44229;DHT22;29904;51.058;5.378;2023-12-07T11:46:09;5.40;99.90
44229;DHT22;29904;51.058;5.378;2023-12-07T11:48:37;5.40;99.90
44229;DHT22;29904;51.058;5.378;2023-12-07T11:51:07;5.50;99.90
44229;DHT22;29904;51.058;5.378;2023-12-07T11:53:40;5.50;99.90
44229;DHT22;29904;51.058;5.378;2023-12-07T11:56:08;5.40;99.90
44229;DHT22;29904;51.058;5.378;2023-12-07T11:58:36;5.50;99.90
44229;DHT22;29904;51.058;5.378;2023-12-07T12:01:04;5.50;99.90
44229;DHT22;29904;51.058;5.378;2023-12-07T12:03:31;5.40;99.90
44229;DHT22;29904;51.058;5.378;2023-12-07T12:06:01;5.40;99.90
44229;DHT22;29904;51.058;5.378;2023-12-07T12:08:29;5.40;99.90
44229;DHT22;29904;51.058;5.378;2023-12-07T12:10:57;5.30;99.90
44229;DHT22;29904;51.058;5.378;2023-12-07T12:13:30;5.30;99.90
44229;DHT22;29904;51.058;5.378;2023-12-07T12:15:58;5.40;99.90
44229;DHT22;29904;51.058;5.378;2023-12-07T12:18:24;5.40;99.90
44229;DHT22;29904;51.058;5.378;2023-12-07T12:20:51;5.30;99.90
44229;DHT22;29904;51.058;5.378;2023-12-07T12:23:18;5.30;99.90
44229;DHT22;29904;51.058;5.378;2023-12-07T12:25:44;5.30;99.90
44229;DHT22;29904;51.058;5.378;2023-12-07T12:28:10;5.40;99.90
44229;DHT22;29904;51.058;5.378;2023-12-07T12:30:39;5.40;99.90
44229;DHT22;29904;51.058;5.378;2023-12-07T12:33:05;5.60;99.90
44229;DHT22;29904;51.058;5.378;2023-12-07T12:35:30;5.60;99.90
44229;DHT22;29904;51.058;5.378;2023-12-07T12:37:59;5.70;99.90
44229;DHT22;29904;51.058;5.378;2023-12-07T12:40:27;5.70;99.90
44229;DHT22;29904;51.058;5.378;2023-12-07T12:42:57;5.80;99.90
44229;DHT22;29904;51.058;5.378;2023-12-07T12:45:24;5.70;99.90
44229;DHT22;29904;51.058;5.378;2023-12-07T12:47:49;5.80;99.90
44229;DHT22;29904;51.058;5.378;2023-12-07T12:50:38;5.60;99.90
44229;DHT22;29904;51.058;5.378;2023-12-07T12:53:07;5.60;99.90
44229;DHT22;29904;51.058;5.378;2023-12-07T12:55:36;5.60;99.90
44229;DHT22;29904;51.058;5.378;2023-12-07T12:58:06;5.50;99.90
44229;DHT22;29904;51.058;5.378;2023-12-07T13:00:32;5.50;99.90
44229;DHT22;29904;51.058;5.378;2023-12-07T13:02:59;5.50;99.90
44229;DHT22;29904;51.058;5.378;2023-12-07T13:05:26;5.40;99.90
44229;DHT22;29904;51.058;5.378;2023-12-07T13:07:52;5.40;99.90
44229;DHT22;29904;51.058;5.378;2023-12-07T13:10:18;5.30;99.90
44229;DHT22;29904;51.058;5.378;2023-12-07T13:12:44;5.20;99.90
44229;DHT22;29904;51.058;5.378;2023-12-07T13:15:11;5.20;99.90
44229;DHT22;29904;51.058;5.378;2023-12-07T13:17:38;5.20;99.90
44229;DHT22;29904;51.058;5.378;2023-12-07T13:20:07;5.10;99.90
44229;DHT22;29904;51.058;5.378;2023-12-07T13:22:42;5.10;99.90
44229;DHT22;29904;51.058;5.378;2023-12-07T13:25:12;5.10;99.90
44229;DHT22;29904;51.058;5.378;2023-12-07T13:27:39;5.10;99.90
44229;DHT22;29904;51.058;5.378;2023-12-07T13:30:08;5.20;99.90
44229;DHT22;29904;51.058;5.378;2023-12-07T13:32:34;5.20;99.90
44229;DHT22;29904;51.058;5.378;2023-12-07T13:35:03;5.20;99.90
44229;DHT22;29904;51.058;5.378;2023-12-07T13:37:30;5.20;99.90
44229;DHT22;29904;51.058;5.378;2023-12-07T13:39:58;5.30;99.90
44229;DHT22;29904;51.058;5.378;2023-12-07T13:42:27;5.40;99.90
44229;DHT22;29904;51.058;5.378;2023-12-07T13:44:56;5.40;99.90
44229;DHT22;29904;51.058;5.378;2023-12-07T13:47:24;5.40;99.90
44229;DHT22;29904;51.058;5.378;2023-12-07T13:49:57;5.50;99.90
44229;DHT22;29904;51.058;5.378;2023-12-07T13:52:23;5.50;99.90
44229;DHT22;29904;51.058;5.378;2023-12-07T13:54:49;5.50;99.90
44229;DHT22;29904;51.058;5.378;2023-12-07T13:57:15;5.40;99.90
44229;DHT22;29904;51.058;5.378;2023-12-07T13:59:41;5.50;99.90
44229;DHT22;29904;51.058;5.378;2023-12-07T14:02:07;5.50;99.90
44229;DHT22;29904;51.058;5.378;2023-12-07T14:04:33;5.50;99.90
44229;DHT22;29904;51.058;5.378;2023-12-07T14:07:13;5.50;99.90
44229;DHT22;29904;51.058;5.378;2023-12-07T14:09:42;5.50;99.90
44229;DHT22;29904;51.058;5.378;2023-12-07T14:12:09;5.50;99.90
44229;DHT22;29904;51.058;5.378;2023-12-07T14:14:36;5.50;99.90
44229;DHT22;29904;51.058;5.378;2023-12-07T14:17:04;5.50;99.90
44229;DHT22;29904;51.058;5.378;2023-12-07T14:19:30;5.40;99.90
44229;DHT22;29904;51.058;5.378;2023-12-07T14:21:55;5.30;99.90
44229;DHT22;29904;51.058;5.378;2023-12-07T14:24:24;5.30;99.90
44229;DHT22;29904;51.058;5.378;2023-12-07T14:26:49;5.30;99.90
44229;DHT22;29904;51.058;5.378;2023-12-07T14:29:15;5.30;99.90
44229;DHT22;29904;51.058;5.378;2023-12-07T14:31:45;5.20;99.90
44229;DHT22;29904;51.058;5.378;2023-12-07T14:34:10;5.20;99.90
44229;DHT22;29904;51.058;5.378;2023-12-07T14:36:36;5.10;99.90
44229;DHT22;29904;51.058;5.378;2023-12-07T14:39:04;5.20;99.90
44229;DHT22;29904;51.058;5.378;2023-12-07T14:41:33;5.20;99.90
44229;DHT22;29904;51.058;5.378;2023-12-07T14:43:59;5.10;99.90
44229;DHT22;29904;51.058;5.378;2023-12-07T14:46:25;5.10;99.90
44229;DHT22;29904;51.058;5.378;2023-12-07T14:48:50;5.00;99.90
44229;DHT22;29904;51.058;5.378;2023-12-07T14:51:20;5.00;99.90
44229;DHT22;29904;51.058;5.378;2023-12-07T14:53:47;4.90;99.90
44229;DHT22;29904;51.058;5.378;2023-12-07T14:56:13;4.90;99.90
44229;DHT22;29904;51.058;5.378;2023-12-07T14:58:38;4.90;99.90
44229;DHT22;29904;51.058;5.378;2023-12-07T15:01:09;5.00;99.90
44229;DHT22;29904;51.058;5.378;2023-12-07T15:03:35;4.90;99.90
44229;DHT22;29904;51.058;5.378;2023-12-07T15:06:01;4.90;99.90
44229;DHT22;29904;51.058;5.378;2023-12-07T15:08:29;4.80;99.90
44229;DHT22;29904;51.058;5.378;2023-12-07T15:10:54;4.80;99.90
44229;DHT22;29904;51.058;5.378;2023-12-07T15:13:21;4.70;99.90
44229;DHT22;29904;51.058;5.378;2023-12-07T15:15:47;4.60;99.90
44229;DHT22;29904;51.058;5.378;2023-12-07T15:18:12;4.60;99.90
44229;DHT22;29904;51.058;5.378;2023-12-07T15:20:38;4.50;99.90
44229;DHT22;29904;51.058;5.378;2023-12-07T15:23:06;4.50;99.90
44229;DHT22;29904;51.058;5.378;2023-12-07T15:25:31;4.40;99.90
44229;DHT22;29904;51.058;5.378;2023-12-07T15:27:57;4.40;99.90
44229;DHT22;29904;51.058;5.378;2023-12-07T15:30:25;4.30;99.90
44229;DHT22;29904;51.058;5.378;2023-12-07T15:32:54;4.30;99.90
44229;DHT22;29904;51.058;5.378;2023-12-07T15:35:20;4.20;99.90
44229;DHT22;29904;51.058;5.378;2023-12-07T15:37:48;4.20;99.90
44229;DHT22;29904;51.058;5.378;2023-12-07T15:40:14;4.20;99.90
44229;DHT22;29904;51.058;5.378;2023-12-07T15:42:40;4.10;99.90
44229;DHT22;29904;51.058;5.378;2023-12-07T15:45:08;4.10;99.90
44229;DHT22;29904;51.058;5.378;2023-12-07T15:47:35;4.10;99.90
44229;DHT22;29904;51.058;5.378;2023-12-07T15:50:01;4.10;99.90
44229;DHT22;29904;51.058;5.378;2023-12-07T15:52:28;4.00;99.90